sensor_id;sensor_type;location;lat;lon;timestamp;P1;durP1;ratioP1;P2;durP2;ratioP2
68985;SDS011;56035;37.534;-122.308;2023-12-07T00:01:08;3.95;;;0.70;;
68985;SDS011;56035;37.534;-122.308;2023-12-07T00:03:34;5.55;;;1.10;;
68985;SDS011;56035;37.534;-122.308;2023-12-07T00:06:01;2.42;;;1.02;;
68985;SDS011;56035;37.534;-122.308;2023-12-07T00:08:28;5.60;;;1.00;;
68985;SDS011;56035;37.534;-122.308;2023-12-07T00:10:54;4.30;;;1.35;;
68985;SDS011;56035;37.534;-122.308;2023-12-07T00:13:20;6.60;;;1.65;;
68985;SDS011;56035;37.534;-122.308;2023-12-07T00:15:47;11.10;;;2.00;;
68985;SDS011;56035;37.534;-122.308;2023-12-07T00:18:13;5.68;;;1.67;;
68985;SDS011;56035;37.534;-122.308;2023-12-07T00:20:39;8.05;;;1.92;;
68985;SDS011;56035;37.534;-122.308;2023-12-07T00:23:06;7.80;;;1.85;;
68985;SDS011;56035;37.534;-122.308;2023-12-07T00:25:32;10.23;;;1.75;;
68985;SDS011;56035;37.534;-122.308;2023-12-07T00:27:59;5.63;;;1.55;;
68985;SDS011;56035;37.534;-122.308;2023-12-07T00:30:25;9.80;;;1.50;;
68985;SDS011;56035;37.534;-122.308;2023-12-07T00:32:52;7.22;;;1.52;;
68985;SDS011;56035;37.534;-122.308;2023-12-07T00:35:18;7.82;;;1.33;;
68985;SDS011;56035;37.534;-122.308;2023-12-07T00:37:47;7.77;;;1.40;;
68985;SDS011;56035;37.534;-122.308;2023-12-07T00:40:14;10.95;;;1.60;;
68985;SDS011;56035;37.534;-122.308;2023-12-07T00:42:40;6.47;;;1.50;;
68985;SDS011;56035;37.534;-122.308;2023-12-07T00:45:08;8.03;;;1.50;;
68985;SDS011;56035;37.534;-122.308;2023-12-07T00:47:35;9.77;;;2.00;;
68985;SDS011;56035;37.534;-122.308;2023-12-07T00:50:02;6.23;;;1.50;;
68985;SDS011;56035;37.534;-122.308;2023-12-07T00:52:29;5.80;;;1.83;;
68985;SDS011;56035;37.534;-122.308;2023-12-07T00:57:23;6.77;;;1.40;;
68985;SDS011;56035;37.534;-122.308;2023-12-07T00:59:52;5.90;;;1.23;;
68985;SDS011;56035;37.534;-122.308;2023-12-07T01:02:19;7.00;;;1.60;;
68985;SDS011;56035;37.534;-122.308;2023-12-07T01:04:46;6.77;;;1.30;;
68985;SDS011;56035;37.534;-122.308;2023-12-07T01:07:14;6.10;;;1.40;;
68985;SDS011;56035;37.534;-122.308;2023-12-07T01:09:47;10.30;;;1.67;;
68985;SDS011;56035;37.534;-122.308;2023-12-07T01:12:16;9.17;;;1.27;;
68985;SDS011;56035;37.534;-122.308;2023-12-07T01:17:09;9.93;;;1.30;;
68985;SDS011;56035;37.534;-122.308;2023-12-07T01:19:37;12.70;;;1.83;;
68985;SDS011;56035;37.534;-122.308;2023-12-07T01:22:04;9.23;;;1.93;;
68985;SDS011;56035;37.534;-122.308;2023-12-07T01:24:31;9.02;;;1.80;;
68985;SDS011;56035;37.534;-122.308;2023-12-07T01:26:58;8.23;;;1.80;;
68985;SDS011;56035;37.534;-122.308;2023-12-07T01:29:25;12.80;;;1.92;;
68985;SDS011;56035;37.534;-122.308;2023-12-07T01:31:52;17.67;;;2.33;;
68985;SDS011;56035;37.534;-122.308;2023-12-07T01:34:19;11.80;;;1.53;;
68985;SDS011;56035;37.534;-122.308;2023-12-07T01:36:46;16.15;;;2.65;;
68985;SDS011;56035;37.534;-122.308;2023-12-07T01:39:12;10.50;;;1.48;;
68985;SDS011;56035;37.534;-122.308;2023-12-07T01:41:41;12.97;;;2.07;;
68985;SDS011;56035;37.534;-122.308;2023-12-07T01:44:08;13.03;;;1.97;;
68985;SDS011;56035;37.534;-122.308;2023-12-07T01:46:35;14.88;;;2.45;;
68985;SDS011;56035;37.534;-122.308;2023-12-07T01:49:03;15.97;;;2.67;;
68985;SDS011;56035;37.534;-122.308;2023-12-07T01:51:30;12.20;;;2.17;;
68985;SDS011;56035;37.534;-122.308;2023-12-07T01:53:57;17.60;;;1.90;;
68985;SDS011;56035;37.534;-122.308;2023-12-07T01:56:25;15.43;;;1.90;;
68985;SDS011;56035;37.534;-122.308;2023-12-07T01:58:53;18.87;;;2.33;;
68985;SDS011;56035;37.534;-122.308;2023-12-07T02:01:19;19.48;;;2.22;;
68985;SDS011;56035;37.534;-122.308;2023-12-07T02:03:47;18.57;;;2.43;;
68985;SDS011;56035;37.534;-122.308;2023-12-07T02:06:13;16.48;;;3.10;;
68985;SDS011;56035;37.534;-122.308;2023-12-07T02:08:40;18.90;;;2.45;;
68985;SDS011;56035;37.534;-122.308;2023-12-07T02:11:08;13.27;;;1.87;;
68985;SDS011;56035;37.534;-122.308;2023-12-07T02:13:36;11.03;;;2.10;;
68985;SDS011;56035;37.534;-122.308;2023-12-07T02:16:04;12.70;;;1.90;;
68985;SDS011;56035;37.534;-122.308;2023-12-07T02:21:13;12.33;;;1.53;;
68985;SDS011;56035;37.534;-122.308;2023-12-07T02:23:42;15.80;;;2.27;;
68985;SDS011;56035;37.534;-122.308;2023-12-07T02:26:08;10.43;;;2.47;;
68985;SDS011;56035;37.534;-122.308;2023-12-07T02:28:36;14.40;;;2.23;;
68985;SDS011;56035;37.534;-122.308;2023-12-07T02:31:03;19.23;;;2.92;;
68985;SDS011;56035;37.534;-122.308;2023-12-07T02:35:56;15.40;;;2.07;;
68985;SDS011;56035;37.534;-122.308;2023-12-07T02:38:22;10.15;;;2.03;;
68985;SDS011;56035;37.534;-122.308;2023-12-07T02:40:51;14.43;;;1.73;;
68985;SDS011;56035;37.534;-122.308;2023-12-07T02:43:20;12.27;;;1.93;;
68985;SDS011;56035;37.534;-122.308;2023-12-07T02:45:47;13.60;;;1.53;;
68985;SDS011;56035;37.534;-122.308;2023-12-07T02:48:14;7.40;;;1.50;;
68985;SDS011;56035;37.534;-122.308;2023-12-07T02:50:42;11.40;;;1.57;;
68985;SDS011;56035;37.534;-122.308;2023-12-07T02:53:09;9.85;;;1.50;;
68985;SDS011;56035;37.534;-122.308;2023-12-07T02:55:36;14.17;;;1.87;;
68985;SDS011;56035;37.534;-122.308;2023-12-07T02:58:03;16.63;;;2.25;;
68985;SDS011;56035;37.534;-122.308;2023-12-07T03:00:30;10.87;;;1.50;;
68985;SDS011;56035;37.534;-122.308;2023-12-07T03:02:56;13.68;;;1.88;;
68985;SDS011;56035;37.534;-122.308;2023-12-07T03:05:23;15.90;;;2.13;;
68985;SDS011;56035;37.534;-122.308;2023-12-07T03:07:49;12.52;;;1.95;;
68985;SDS011;56035;37.534;-122.308;2023-12-07T03:10:15;13.48;;;2.42;;
68985;SDS011;56035;37.534;-122.308;2023-12-07T03:12:42;13.73;;;2.95;;
68985;SDS011;56035;37.534;-122.308;2023-12-07T03:15:08;14.50;;;2.40;;
68985;SDS011;56035;37.534;-122.308;2023-12-07T03:20:02;15.30;;;1.80;;
68985;SDS011;56035;37.534;-122.308;2023-12-07T03:22:31;15.40;;;2.47;;
68985;SDS011;56035;37.534;-122.308;2023-12-07T03:24:58;13.97;;;2.27;;
68985;SDS011;56035;37.534;-122.308;2023-12-07T03:27:25;25.77;;;2.57;;
68985;SDS011;56035;37.534;-122.308;2023-12-07T03:29:53;23.23;;;2.53;;
68985;SDS011;56035;37.534;-122.308;2023-12-07T03:32:20;13.13;;;2.15;;
68985;SDS011;56035;37.534;-122.308;2023-12-07T03:34:46;15.68;;;2.33;;
68985;SDS011;56035;37.534;-122.308;2023-12-07T03:37:12;13.00;;;2.05;;
68985;SDS011;56035;37.534;-122.308;2023-12-07T03:39:39;24.15;;;2.95;;
68985;SDS011;56035;37.534;-122.308;2023-12-07T03:42:05;19.30;;;2.90;;
68985;SDS011;56035;37.534;-122.308;2023-12-07T03:44:32;22.30;;;3.72;;
68985;SDS011;56035;37.534;-122.308;2023-12-07T03:46:58;27.38;;;4.88;;
68985;SDS011;56035;37.534;-122.308;2023-12-07T03:49:26;19.17;;;2.60;;
68985;SDS011;56035;37.534;-122.308;2023-12-07T03:51:52;16.30;;;2.40;;
68985;SDS011;56035;37.534;-122.308;2023-12-07T03:54:38;16.60;;;2.20;;
68985;SDS011;56035;37.534;-122.308;2023-12-07T03:57:05;16.73;;;2.20;;
68985;SDS011;56035;37.534;-122.308;2023-12-07T03:59:31;18.38;;;2.83;;
68985;SDS011;56035;37.534;-122.308;2023-12-07T04:01:58;17.83;;;2.33;;
68985;SDS011;56035;37.534;-122.308;2023-12-07T04:04:24;20.13;;;2.63;;
68985;SDS011;56035;37.534;-122.308;2023-12-07T04:06:50;15.77;;;1.88;;
68985;SDS011;56035;37.534;-122.308;2023-12-07T04:09:17;16.38;;;2.40;;
68985;SDS011;56035;37.534;-122.308;2023-12-07T04:11:43;13.70;;;2.50;;
68985;SDS011;56035;37.534;-122.308;2023-12-07T04:14:11;23.20;;;3.20;;
68985;SDS011;56035;37.534;-122.308;2023-12-07T04:16:40;19.80;;;3.27;;
68985;SDS011;56035;37.534;-122.308;2023-12-07T04:19:07;15.95;;;2.15;;
68985;SDS011;56035;37.534;-122.308;2023-12-07T04:21:33;12.55;;;1.80;;
68985;SDS011;56035;37.534;-122.308;2023-12-07T04:24:00;18.88;;;3.13;;
68985;SDS011;56035;37.534;-122.308;2023-12-07T04:26:26;18.02;;;3.33;;
68985;SDS011;56035;37.534;-122.308;2023-12-07T04:28:52;15.82;;;3.13;;
68985;SDS011;56035;37.534;-122.308;2023-12-07T04:31:19;20.17;;;2.60;;
68985;SDS011;56035;37.534;-122.308;2023-12-07T04:33:47;15.40;;;2.20;;
68985;SDS011;56035;37.534;-122.308;2023-12-07T04:36:14;16.73;;;2.30;;
68985;SDS011;56035;37.534;-122.308;2023-12-07T04:38:41;16.63;;;2.20;;
68985;SDS011;56035;37.534;-122.308;2023-12-07T04:41:08;20.45;;;2.70;;
68985;SDS011;56035;37.534;-122.308;2023-12-07T04:43:35;19.47;;;2.87;;
68985;SDS011;56035;37.534;-122.308;2023-12-07T04:46:02;17.27;;;2.10;;
68985;SDS011;56035;37.534;-122.308;2023-12-07T04:50:55;16.73;;;2.13;;
68985;SDS011;56035;37.534;-122.308;2023-12-07T04:53:22;14.10;;;2.50;;
68985;SDS011;56035;37.534;-122.308;2023-12-07T04:55:48;17.30;;;1.90;;
68985;SDS011;56035;37.534;-122.308;2023-12-07T04:58:15;16.50;;;2.87;;
68985;SDS011;56035;37.534;-122.308;2023-12-07T05:00:42;20.52;;;3.08;;
68985;SDS011;56035;37.534;-122.308;2023-12-07T05:03:08;21.40;;;2.53;;
68985;SDS011;56035;37.534;-122.308;2023-12-07T05:05:34;13.90;;;2.20;;
68985;SDS011;56035;37.534;-122.308;2023-12-07T05:10:30;14.60;;;1.70;;
68985;SDS011;56035;37.534;-122.308;2023-12-07T05:12:57;17.97;;;2.07;;
68985;SDS011;56035;37.534;-122.308;2023-12-07T05:15:23;15.57;;;2.13;;
68985;SDS011;56035;37.534;-122.308;2023-12-07T05:17:50;17.70;;;2.72;;
68985;SDS011;56035;37.534;-122.308;2023-12-07T05:20:16;18.70;;;2.65;;
68985;SDS011;56035;37.534;-122.308;2023-12-07T05:22:47;22.07;;;2.83;;
68985;SDS011;56035;37.534;-122.308;2023-12-07T05:25:13;15.00;;;2.25;;
68985;SDS011;56035;37.534;-122.308;2023-12-07T05:27:40;13.70;;;3.25;;
68985;SDS011;56035;37.534;-122.308;2023-12-07T05:30:06;15.05;;;2.58;;
68985;SDS011;56035;37.534;-122.308;2023-12-07T05:32:33;16.67;;;2.60;;
68985;SDS011;56035;37.534;-122.308;2023-12-07T05:34:59;14.30;;;2.25;;
68985;SDS011;56035;37.534;-122.308;2023-12-07T05:37:26;17.52;;;2.00;;
68985;SDS011;56035;37.534;-122.308;2023-12-07T05:39:52;16.27;;;2.40;;
68985;SDS011;56035;37.534;-122.308;2023-12-07T05:42:18;18.77;;;2.10;;
68985;SDS011;56035;37.534;-122.308;2023-12-07T05:44:45;14.57;;;1.85;;
68985;SDS011;56035;37.534;-122.308;2023-12-07T05:47:12;16.25;;;2.75;;
68985;SDS011;56035;37.534;-122.308;2023-12-07T05:49:38;13.20;;;2.72;;
68985;SDS011;56035;37.534;-122.308;2023-12-07T05:52:04;16.63;;;2.33;;
68985;SDS011;56035;37.534;-122.308;2023-12-07T05:54:31;21.25;;;3.17;;
68985;SDS011;56035;37.534;-122.308;2023-12-07T05:56:57;18.30;;;2.47;;
68985;SDS011;56035;37.534;-122.308;2023-12-07T05:59:25;15.33;;;2.70;;
68985;SDS011;56035;37.534;-122.308;2023-12-07T06:01:51;14.88;;;2.10;;
68985;SDS011;56035;37.534;-122.308;2023-12-07T06:04:18;15.60;;;2.50;;
68985;SDS011;56035;37.534;-122.308;2023-12-07T06:06:45;19.65;;;2.65;;
68985;SDS011;56035;37.534;-122.308;2023-12-07T06:09:11;13.60;;;2.47;;
68985;SDS011;56035;37.534;-122.308;2023-12-07T06:11:38;14.85;;;1.88;;
68985;SDS011;56035;37.534;-122.308;2023-12-07T06:14:05;14.50;;;2.57;;
68985;SDS011;56035;37.534;-122.308;2023-12-07T06:16:32;18.47;;;2.20;;
68985;SDS011;56035;37.534;-122.308;2023-12-07T06:18:59;19.00;;;2.50;;
68985;SDS011;56035;37.534;-122.308;2023-12-07T06:21:25;18.85;;;2.45;;
68985;SDS011;56035;37.534;-122.308;2023-12-07T06:23:54;14.70;;;2.30;;
68985;SDS011;56035;37.534;-122.308;2023-12-07T06:26:21;14.07;;;2.60;;
68985;SDS011;56035;37.534;-122.308;2023-12-07T06:28:48;16.75;;;2.58;;
68985;SDS011;56035;37.534;-122.308;2023-12-07T06:31:14;14.75;;;2.60;;
68985;SDS011;56035;37.534;-122.308;2023-12-07T06:33:45;20.73;;;2.17;;
68985;SDS011;56035;37.534;-122.308;2023-12-07T06:36:17;15.23;;;2.78;;
68985;SDS011;56035;37.534;-122.308;2023-12-07T06:38:44;20.43;;;2.57;;
68985;SDS011;56035;37.534;-122.308;2023-12-07T06:41:11;21.10;;;2.65;;
68985;SDS011;56035;37.534;-122.308;2023-12-07T06:43:38;21.77;;;2.45;;
68985;SDS011;56035;37.534;-122.308;2023-12-07T06:46:04;19.92;;;2.58;;
68985;SDS011;56035;37.534;-122.308;2023-12-07T06:48:31;28.27;;;2.70;;
68985;SDS011;56035;37.534;-122.308;2023-12-07T06:50:57;11.75;;;2.42;;
68985;SDS011;56035;37.534;-122.308;2023-12-07T06:53:24;11.50;;;1.90;;
68985;SDS011;56035;37.534;-122.308;2023-12-07T06:55:50;21.33;;;2.50;;
68985;SDS011;56035;37.534;-122.308;2023-12-07T06:58:17;14.10;;;2.20;;
68985;SDS011;56035;37.534;-122.308;2023-12-07T07:00:43;14.05;;;2.10;;
68985;SDS011;56035;37.534;-122.308;2023-12-07T07:03:09;24.65;;;3.30;;
68985;SDS011;56035;37.534;-122.308;2023-12-07T07:05:36;22.95;;;2.78;;
68985;SDS011;56035;37.534;-122.308;2023-12-07T07:08:02;23.85;;;3.38;;
68985;SDS011;56035;37.534;-122.308;2023-12-07T07:10:29;20.45;;;2.42;;
68985;SDS011;56035;37.534;-122.308;2023-12-07T07:12:59;20.77;;;3.57;;
68985;SDS011;56035;37.534;-122.308;2023-12-07T07:15:30;22.67;;;3.30;;
68985;SDS011;56035;37.534;-122.308;2023-12-07T07:17:57;24.93;;;2.57;;
68985;SDS011;56035;37.534;-122.308;2023-12-07T07:20:24;24.25;;;3.53;;
68985;SDS011;56035;37.534;-122.308;2023-12-07T07:22:51;16.63;;;3.07;;
68985;SDS011;56035;37.534;-122.308;2023-12-07T07:25:17;25.00;;;3.17;;
68985;SDS011;56035;37.534;-122.308;2023-12-07T07:30:11;22.97;;;3.27;;
68985;SDS011;56035;37.534;-122.308;2023-12-07T07:32:38;20.83;;;2.80;;
68985;SDS011;56035;37.534;-122.308;2023-12-07T07:35:04;31.17;;;3.65;;
68985;SDS011;56035;37.534;-122.308;2023-12-07T07:37:31;26.17;;;2.55;;
68985;SDS011;56035;37.534;-122.308;2023-12-07T07:39:57;18.45;;;2.90;;
68985;SDS011;56035;37.534;-122.308;2023-12-07T07:42:25;18.87;;;2.57;;
68985;SDS011;56035;37.534;-122.308;2023-12-07T07:44:51;19.92;;;3.58;;
68985;SDS011;56035;37.534;-122.308;2023-12-07T07:47:17;17.40;;;2.58;;
68985;SDS011;56035;37.534;-122.308;2023-12-07T07:49:44;22.77;;;2.83;;
68985;SDS011;56035;37.534;-122.308;2023-12-07T07:52:13;25.35;;;3.25;;
68985;SDS011;56035;37.534;-122.308;2023-12-07T07:54:39;23.43;;;3.40;;
68985;SDS011;56035;37.534;-122.308;2023-12-07T07:57:06;16.92;;;3.20;;
68985;SDS011;56035;37.534;-122.308;2023-12-07T07:59:32;21.65;;;3.00;;
68985;SDS011;56035;37.534;-122.308;2023-12-07T08:01:58;15.40;;;2.42;;
68985;SDS011;56035;37.534;-122.308;2023-12-07T08:04:25;19.58;;;2.55;;
68985;SDS011;56035;37.534;-122.308;2023-12-07T08:06:51;22.05;;;3.38;;
68985;SDS011;56035;37.534;-122.308;2023-12-07T08:09:17;19.15;;;2.30;;
68985;SDS011;56035;37.534;-122.308;2023-12-07T08:11:44;20.45;;;2.42;;
68985;SDS011;56035;37.534;-122.308;2023-12-07T08:14:10;20.52;;;2.30;;
68985;SDS011;56035;37.534;-122.308;2023-12-07T08:16:38;16.07;;;2.23;;
68985;SDS011;56035;37.534;-122.308;2023-12-07T08:19:07;18.77;;;2.60;;
68985;SDS011;56035;37.534;-122.308;2023-12-07T08:21:34;14.88;;;2.45;;
68985;SDS011;56035;37.534;-122.308;2023-12-07T08:24:00;24.35;;;2.50;;
68985;SDS011;56035;37.534;-122.308;2023-12-07T08:26:27;13.18;;;1.98;;
68985;SDS011;56035;37.534;-122.308;2023-12-07T08:28:53;16.70;;;2.20;;
68985;SDS011;56035;37.534;-122.308;2023-12-07T08:31:19;20.50;;;3.20;;
68985;SDS011;56035;37.534;-122.308;2023-12-07T08:33:48;19.50;;;2.90;;
68985;SDS011;56035;37.534;-122.308;2023-12-07T08:36:14;18.85;;;2.60;;
68985;SDS011;56035;37.534;-122.308;2023-12-07T08:38:41;18.83;;;3.33;;
68985;SDS011;56035;37.534;-122.308;2023-12-07T08:41:08;19.25;;;2.03;;
68985;SDS011;56035;37.534;-122.308;2023-12-07T08:43:34;19.95;;;2.40;;
68985;SDS011;56035;37.534;-122.308;2023-12-07T08:46:01;17.42;;;2.47;;
68985;SDS011;56035;37.534;-122.308;2023-12-07T08:48:28;30.10;;;3.30;;
68985;SDS011;56035;37.534;-122.308;2023-12-07T08:50:55;17.27;;;2.45;;
68985;SDS011;56035;37.534;-122.308;2023-12-07T08:53:21;12.90;;;1.90;;
68985;SDS011;56035;37.534;-122.308;2023-12-07T08:55:48;19.83;;;2.13;;
68985;SDS011;56035;37.534;-122.308;2023-12-07T08:58:14;19.60;;;2.28;;
68985;SDS011;56035;37.534;-122.308;2023-12-07T09:00:41;17.92;;;2.75;;
68985;SDS011;56035;37.534;-122.308;2023-12-07T09:03:07;21.42;;;2.20;;
68985;SDS011;56035;37.534;-122.308;2023-12-07T09:05:33;20.98;;;2.15;;
68985;SDS011;56035;37.534;-122.308;2023-12-07T09:08:00;17.88;;;2.03;;
68985;SDS011;56035;37.534;-122.308;2023-12-07T09:10:26;15.55;;;2.33;;
68985;SDS011;56035;37.534;-122.308;2023-12-07T09:12:53;18.20;;;2.72;;
68985;SDS011;56035;37.534;-122.308;2023-12-07T09:15:19;18.73;;;3.13;;
68985;SDS011;56035;37.534;-122.308;2023-12-07T09:20:14;13.07;;;1.70;;
68985;SDS011;56035;37.534;-122.308;2023-12-07T09:22:43;14.68;;;1.70;;
68985;SDS011;56035;37.534;-122.308;2023-12-07T09:25:11;14.43;;;1.83;;
68985;SDS011;56035;37.534;-122.308;2023-12-07T09:27:38;13.23;;;1.93;;
68985;SDS011;56035;37.534;-122.308;2023-12-07T09:30:05;11.07;;;1.60;;
68985;SDS011;56035;37.534;-122.308;2023-12-07T09:32:36;13.37;;;1.70;;
68985;SDS011;56035;37.534;-122.308;2023-12-07T09:35:08;10.77;;;1.87;;
68985;SDS011;56035;37.534;-122.308;2023-12-07T09:37:44;15.37;;;1.90;;
68985;SDS011;56035;37.534;-122.308;2023-12-07T09:40:15;11.30;;;1.90;;
68985;SDS011;56035;37.534;-122.308;2023-12-07T09:42:49;14.97;;;1.80;;
68985;SDS011;56035;37.534;-122.308;2023-12-07T09:45:16;13.70;;;2.37;;
68985;SDS011;56035;37.534;-122.308;2023-12-07T09:47:47;15.43;;;2.27;;
68985;SDS011;56035;37.534;-122.308;2023-12-07T09:50:16;15.60;;;2.07;;
68985;SDS011;56035;37.534;-122.308;2023-12-07T09:52:43;16.80;;;2.53;;
68985;SDS011;56035;37.534;-122.308;2023-12-07T09:55:10;14.30;;;1.92;;
68985;SDS011;56035;37.534;-122.308;2023-12-07T09:57:37;10.98;;;2.00;;
68985;SDS011;56035;37.534;-122.308;2023-12-07T10:00:03;14.50;;;1.70;;
68985;SDS011;56035;37.534;-122.308;2023-12-07T10:02:32;17.60;;;1.87;;
68985;SDS011;56035;37.534;-122.308;2023-12-07T10:05:04;11.73;;;1.57;;
68985;SDS011;56035;37.534;-122.308;2023-12-07T10:07:35;15.70;;;2.43;;
68985;SDS011;56035;37.534;-122.308;2023-12-07T10:10:06;17.33;;;2.00;;
68985;SDS011;56035;37.534;-122.308;2023-12-07T10:12:33;14.25;;;2.22;;
68985;SDS011;56035;37.534;-122.308;2023-12-07T10:15:00;12.17;;;2.20;;
68985;SDS011;56035;37.534;-122.308;2023-12-07T10:17:51;12.53;;;2.00;;
68985;SDS011;56035;37.534;-122.308;2023-12-07T10:20:22;20.43;;;2.10;;
68985;SDS011;56035;37.534;-122.308;2023-12-07T10:23:02;12.73;;;2.23;;
68985;SDS011;56035;37.534;-122.308;2023-12-07T10:25:39;12.17;;;2.07;;
68985;SDS011;56035;37.534;-122.308;2023-12-07T10:28:07;14.73;;;1.87;;
68985;SDS011;56035;37.534;-122.308;2023-12-07T10:30:36;13.50;;;1.80;;
68985;SDS011;56035;37.534;-122.308;2023-12-07T10:33:03;15.83;;;2.17;;
68985;SDS011;56035;37.534;-122.308;2023-12-07T10:35:32;15.03;;;2.00;;
68985;SDS011;56035;37.534;-122.308;2023-12-07T10:37:58;23.08;;;2.55;;
68985;SDS011;56035;37.534;-122.308;2023-12-07T10:40:25;13.45;;;1.98;;
68985;SDS011;56035;37.534;-122.308;2023-12-07T10:42:53;12.45;;;1.63;;
68985;SDS011;56035;37.534;-122.308;2023-12-07T10:45:27;18.63;;;2.40;;
68985;SDS011;56035;37.534;-122.308;2023-12-07T10:47:57;15.50;;;2.17;;
68985;SDS011;56035;37.534;-122.308;2023-12-07T10:50:37;13.40;;;1.90;;
68985;SDS011;56035;37.534;-122.308;2023-12-07T10:53:09;14.13;;;2.07;;
68985;SDS011;56035;37.534;-122.308;2023-12-07T10:55:59;13.60;;;1.93;;
68985;SDS011;56035;37.534;-122.308;2023-12-07T10:58:26;16.67;;;1.93;;
68985;SDS011;56035;37.534;-122.308;2023-12-07T11:00:53;14.88;;;2.28;;
68985;SDS011;56035;37.534;-122.308;2023-12-07T11:03:20;13.88;;;2.33;;
68985;SDS011;56035;37.534;-122.308;2023-12-07T11:05:47;16.10;;;1.97;;
68985;SDS011;56035;37.534;-122.308;2023-12-07T11:10:48;14.53;;;2.43;;
68985;SDS011;56035;37.534;-122.308;2023-12-07T11:13:29;16.00;;;2.07;;
68985;SDS011;56035;37.534;-122.308;2023-12-07T11:15:57;17.27;;;2.30;;
68985;SDS011;56035;37.534;-122.308;2023-12-07T11:18:27;19.80;;;2.92;;
68985;SDS011;56035;37.534;-122.308;2023-12-07T11:20:56;18.13;;;2.50;;
68985;SDS011;56035;37.534;-122.308;2023-12-07T11:23:23;11.50;;;1.83;;
68985;SDS011;56035;37.534;-122.308;2023-12-07T11:25:50;15.68;;;2.17;;
68985;SDS011;56035;37.534;-122.308;2023-12-07T11:28:18;13.33;;;2.40;;
68985;SDS011;56035;37.534;-122.308;2023-12-07T11:31:00;16.73;;;2.40;;
68985;SDS011;56035;37.534;-122.308;2023-12-07T11:33:28;18.17;;;2.70;;
68985;SDS011;56035;37.534;-122.308;2023-12-07T11:38:29;16.83;;;1.83;;
68985;SDS011;56035;37.534;-122.308;2023-12-07T11:40:55;12.77;;;1.70;;
68985;SDS011;56035;37.534;-122.308;2023-12-07T11:46:01;13.67;;;2.00;;
68985;SDS011;56035;37.534;-122.308;2023-12-07T11:53:24;21.43;;;2.30;;
68985;SDS011;56035;37.534;-122.308;2023-12-07T11:55:52;16.37;;;2.57;;
68985;SDS011;56035;37.534;-122.308;2023-12-07T11:58:18;18.67;;;2.15;;
68985;SDS011;56035;37.534;-122.308;2023-12-07T12:00:46;19.70;;;2.00;;
68985;SDS011;56035;37.534;-122.308;2023-12-07T12:03:13;11.73;;;1.70;;
68985;SDS011;56035;37.534;-122.308;2023-12-07T12:05:40;14.53;;;1.80;;
68985;SDS011;56035;37.534;-122.308;2023-12-07T12:08:08;22.93;;;1.90;;
68985;SDS011;56035;37.534;-122.308;2023-12-07T12:10:35;21.30;;;2.27;;
68985;SDS011;56035;37.534;-122.308;2023-12-07T12:13:02;18.05;;;2.28;;
68985;SDS011;56035;37.534;-122.308;2023-12-07T12:15:30;11.33;;;2.30;;
68985;SDS011;56035;37.534;-122.308;2023-12-07T12:17:56;12.13;;;2.20;;
68985;SDS011;56035;37.534;-122.308;2023-12-07T12:20:24;18.67;;;2.10;;
68985;SDS011;56035;37.534;-122.308;2023-12-07T12:22:51;15.70;;;2.40;;
68985;SDS011;56035;37.534;-122.308;2023-12-07T12:25:21;15.07;;;2.07;;
68985;SDS011;56035;37.534;-122.308;2023-12-07T12:27:56;18.00;;;2.20;;
68985;SDS011;56035;37.534;-122.308;2023-12-07T12:30:32;17.77;;;2.40;;
68985;SDS011;56035;37.534;-122.308;2023-12-07T12:32:59;23.85;;;2.53;;
68985;SDS011;56035;37.534;-122.308;2023-12-07T12:35:25;18.30;;;2.70;;
68985;SDS011;56035;37.534;-122.308;2023-12-07T12:37:52;12.82;;;2.20;;
68985;SDS011;56035;37.534;-122.308;2023-12-07T12:40:21;12.80;;;1.83;;
68985;SDS011;56035;37.534;-122.308;2023-12-07T12:42:51;16.60;;;2.93;;
68985;SDS011;56035;37.534;-122.308;2023-12-07T12:45:18;21.43;;;2.60;;
68985;SDS011;56035;37.534;-122.308;2023-12-07T12:47:45;23.57;;;3.13;;
68985;SDS011;56035;37.534;-122.308;2023-12-07T12:50:13;16.80;;;2.97;;
68985;SDS011;56035;37.534;-122.308;2023-12-07T12:53:08;14.07;;;2.03;;
68985;SDS011;56035;37.534;-122.308;2023-12-07T12:55:35;22.57;;;2.70;;
68985;SDS011;56035;37.534;-122.308;2023-12-07T12:58:06;17.80;;;3.00;;
68985;SDS011;56035;37.534;-122.308;2023-12-07T13:00:34;15.97;;;2.40;;
68985;SDS011;56035;37.534;-122.308;2023-12-07T13:05:28;19.10;;;3.05;;
68985;SDS011;56035;37.534;-122.308;2023-12-07T13:07:55;18.52;;;2.88;;
68985;SDS011;56035;37.534;-122.308;2023-12-07T13:12:48;18.77;;;2.87;;
68985;SDS011;56035;37.534;-122.308;2023-12-07T13:15:14;13.77;;;2.35;;
68985;SDS011;56035;37.534;-122.308;2023-12-07T13:17:41;23.52;;;2.70;;
68985;SDS011;56035;37.534;-122.308;2023-12-07T13:20:08;22.73;;;3.00;;
68985;SDS011;56035;37.534;-122.308;2023-12-07T13:22:39;33.27;;;3.47;;
68985;SDS011;56035;37.534;-122.308;2023-12-07T13:25:09;22.37;;;2.80;;
68985;SDS011;56035;37.534;-122.308;2023-12-07T13:27:37;27.80;;;3.97;;
68985;SDS011;56035;37.534;-122.308;2023-12-07T13:30:05;21.35;;;3.05;;
68985;SDS011;56035;37.534;-122.308;2023-12-07T13:32:35;17.40;;;2.70;;
68985;SDS011;56035;37.534;-122.308;2023-12-07T13:35:05;17.00;;;3.63;;
68985;SDS011;56035;37.534;-122.308;2023-12-07T13:37:33;19.83;;;3.20;;
68985;SDS011;56035;37.534;-122.308;2023-12-07T13:39:59;16.30;;;3.05;;
68985;SDS011;56035;37.534;-122.308;2023-12-07T13:42:29;35.07;;;3.77;;
68985;SDS011;56035;37.534;-122.308;2023-12-07T13:44:57;18.47;;;2.90;;
68985;SDS011;56035;37.534;-122.308;2023-12-07T13:47:25;23.70;;;2.73;;
68985;SDS011;56035;37.534;-122.308;2023-12-07T13:49:57;22.27;;;3.37;;
68985;SDS011;56035;37.534;-122.308;2023-12-07T13:52:24;20.23;;;3.10;;
68985;SDS011;56035;37.534;-122.308;2023-12-07T13:57:18;16.87;;;3.13;;
68985;SDS011;56035;37.534;-122.308;2023-12-07T13:59:45;21.53;;;3.10;;
68985;SDS011;56035;37.534;-122.308;2023-12-07T14:02:12;16.27;;;3.35;;
68985;SDS011;56035;37.534;-122.308;2023-12-07T14:04:38;29.83;;;3.25;;
68985;SDS011;56035;37.534;-122.308;2023-12-07T14:07:12;24.50;;;3.05;;
68985;SDS011;56035;37.534;-122.308;2023-12-07T14:09:40;21.63;;;3.20;;
68985;SDS011;56035;37.534;-122.308;2023-12-07T14:12:08;23.73;;;2.73;;
68985;SDS011;56035;37.534;-122.308;2023-12-07T14:14:41;23.27;;;2.70;;
68985;SDS011;56035;37.534;-122.308;2023-12-07T14:17:09;22.47;;;2.80;;
68985;SDS011;56035;37.534;-122.308;2023-12-07T14:19:36;20.53;;;3.23;;
68985;SDS011;56035;37.534;-122.308;2023-12-07T14:22:03;28.50;;;3.37;;
68985;SDS011;56035;37.534;-122.308;2023-12-07T14:26:57;22.07;;;3.00;;
68985;SDS011;56035;37.534;-122.308;2023-12-07T14:29:24;30.97;;;4.10;;
68985;SDS011;56035;37.534;-122.308;2023-12-07T14:31:52;21.40;;;3.67;;
68985;SDS011;56035;37.534;-122.308;2023-12-07T14:34:19;22.40;;;3.45;;
68985;SDS011;56035;37.534;-122.308;2023-12-07T14:36:46;23.40;;;3.80;;
68985;SDS011;56035;37.534;-122.308;2023-12-07T14:39:15;25.80;;;3.03;;
68985;SDS011;56035;37.534;-122.308;2023-12-07T14:41:45;19.23;;;2.90;;
68985;SDS011;56035;37.534;-122.308;2023-12-07T14:44:15;26.47;;;3.03;;
68985;SDS011;56035;37.534;-122.308;2023-12-07T14:46:42;20.90;;;3.10;;